Airport View

Enter AWOS ICAO identifier for current METAR.

ex. KFNL

K3K3 112155Z AUTO 16014KT 10SM CLR 10/M02 A3003 RMK AO2

11 Dec 2019 22:18

Frequency: 119.975

Phone: 620-384-5869

Other Area AWOS: KJHN - KULS - KLAA - KGCK

TAF KGCK 111720Z 1118/1218 22012G20KT P6SM FEW250 FM112000 22020G30KT P6SM SCT250 FM120300 21015G25KT P6SM BKN150 FM121000 30010KT P6SM SCT250